• Join FlightAware (Why Join?)
  • Login
  • US Flag 
04:21PM EST


 

Airport Tracker/Info


-or-


 

Live Flight TrackerFlight Track Log ✈ N277AG ✈ 02-Aug-2013 ✈ T67 - KHQZ

Flight Track Log - Related Links

Times and Time Zones

All times are in EDT time to prevent confusion due to time zone crossing. See the N277AG flight status page for this flight to view local times or setup timezone preferences in your user account.

Time Position Orientation Groundspeed Altitude Reporting Facility
EDT Latitude Longitude Course Direction KTS MPH feet Rate Location/Type
12:14PM 32.9333 -97.4000 105° East 93 107 900  Level Dallas / Fort Worth TRACON
12:16PM 32.9133 -97.3198 107° East  Level FlightAware Approximate
12:16PM 32.8667 -97.3500 107° East 125 144 2,800  Level Dallas / Fort Worth TRACON
12:17PM 32.8333 -97.3333 157° South 137 158 3,500 600 Climbing Dallas / Fort Worth TRACON
12:18PM 32.8000 -97.3167 157° South 138 159 4,000 240 Climbing Dallas / Fort Worth TRACON
12:19PM 32.7667 -97.2833 140° Southeast 168 193 4,000  Level Dallas / Fort Worth TRACON
12:20PM 32.8527 -97.0320 105° East  Level Estimated
12:20PM 32.7167 -97.2667 164° South 167 192 4,000  Level Dallas / Fort Worth TRACON
12:21PM 32.6833 -97.2333 140° Southeast 169 194 4,000  Level Dallas / Fort Worth TRACON
12:22PM 32.6500 -97.1833 128° Southeast 184 212 4,000  Level Dallas / Fort Worth TRACON
12:23PM 32.6333 -97.1167 107° East 182 209 4,000  Level Dallas / Fort Worth TRACON
12:24PM 32.6333 -97.0667 90° East 186 214 4,000  Level Dallas / Fort Worth TRACON
12:25PM 32.6333 -97.0000 90° East 189 217 4,000  Level Dallas / Fort Worth TRACON
12:26PM 32.6333 -96.9333 90° East 186 214 4,000  Level Dallas / Fort Worth TRACON
12:27PM 32.6333 -96.8833 90° East 188 216 4,000  Level Dallas / Fort Worth TRACON
12:28PM 32.6500 -96.8333 68° East 192 221 4,000 -300 Level Dallas / Fort Worth TRACON
12:29PM 32.6667 -96.7667 73° East 194 223 3,500 -600 Descending Dallas / Fort Worth TRACON
12:31PM 32.6780 -96.7104 71° East  Level FlightAware Approximate
12:38PM 32.7333 -96.5167 71° East  Level FlightAware Approximate
12:39PM 32.7470 -96.5304 71° East  Level Estimated
12:40PM 32.7470 -96.5304 71° East  Level Estimated
12:41PM 32.7470 -96.5304 71° East  Level Estimated